Time;durP1;ratioP1;P1;durP2;ratioP2;P2;SDS_P1;SDS_P2;PMS_P1;PMS_P2;Temp;Humidity;BMP_temperature;BMP_pressure;BME280_temperature;BME280_humidity;BME280_pressure;Samples;Min_cycle;Max_cycle;Signal;HPM_P1;HPM_P2
2022/11/20 00:00:12;;;;;;;19.42;13.02;;;-0.50;99.90;;;;;;5145788;27;20144;-74
2022/11/20 00:02:37;;;;;;;18.70;13.40;;;-0.30;99.90;;;;;;5105678;27;20134;-74
2022/11/20 00:05:03;;;;;;;20.52;13.05;;;-0.30;99.90;;;;;;5126899;27;20145;-73
2022/11/20 00:07:29;;;;;;;20.05;13.43;;;-0.30;99.90;;;;;;5143287;27;20095;-74
2022/11/20 00:09:55;;;;;;;23.77;13.95;;;-0.40;99.90;;;;;;5120095;27;20038;-74
2022/11/20 00:12:20;;;;;;;20.88;13.15;;;-0.20;99.90;;;;;;5125960;27;20118;-74
2022/11/20 00:14:46;;;;;;;18.58;12.77;;;-0.30;99.90;;;;;;5141316;27;20039;-74
2022/11/20 00:17:11;;;;;;;19.52;13.70;;;-0.30;99.90;;;;;;5106464;27;20030;-74
2022/11/20 00:19:37;;;;;;;20.27;12.75;;;-0.30;99.90;;;;;;5126774;27;20051;-75
2022/11/20 00:22:02;;;;;;;17.48;12.05;;;-0.30;99.90;;;;;;5127509;27;20039;-74
2022/11/20 00:24:28;;;;;;;20.70;13.63;;;-0.30;99.90;;;;;;5125866;27;20537;-75
2022/11/20 00:26:54;;;;;;;20.98;11.75;;;-0.30;99.90;;;;;;5124944;27;20057;-74
2022/11/20 00:29:19;;;;;;;18.10;12.02;;;-0.30;99.90;;;;;;5115235;27;20045;-74
2022/11/20 00:31:45;;;;;;;18.27;12.23;;;0.70;99.90;;;;;;5128758;27;20038;-74
2022/11/20 00:34:11;;;;;;;19.98;13.07;;;-0.30;99.90;;;;;;5145933;27;20039;-75
2022/11/20 00:36:36;;;;;;;18.48;11.95;;;-0.30;99.90;;;;;;5125000;27;20039;-75
2022/11/20 00:39:02;;;;;;;21.08;12.80;;;-0.30;99.90;;;;;;5153760;27;20043;-74
2022/11/20 00:41:29;;;;;;;17.70;12.73;;;-0.30;99.90;;;;;;5125816;27;20105;-75
2022/11/20 00:43:55;;;;;;;16.55;11.73;;;-0.20;99.90;;;;;;5146529;27;20039;-75
2022/11/20 00:46:23;;;;;;;17.58;12.13;;;-0.20;99.90;;;;;;5153661;27;20062;-74
2022/11/20 00:48:49;;;;;;;14.43;11.63;;;-0.30;99.90;;;;;;5103916;27;20390;-75
2022/11/20 00:51:18;;;;;;;17.88;11.70;;;-0.30;99.90;;;;;;5117651;27;20046;-75
2022/11/20 00:53:44;;;;;;;14.88;11.02;;;-0.30;99.90;;;;;;5145135;27;20745;-76
2022/11/20 00:56:13;;;;;;;17.20;12.05;;;0.80;99.90;;;;;;5109575;27;20027;-75
2022/11/20 00:58:41;;;;;;;18.73;12.25;;;-0.30;99.90;;;;;;5121549;27;20050;-76
2022/11/20 01:01:12;;;;;;;21.42;11.88;;;-0.30;99.90;;;;;;5129582;27;20138;-74
2022/11/20 01:03:40;;;;;;;15.45;12.00;;;-0.30;99.90;;;;;;5132389;27;20039;-75
2022/11/20 01:06:15;;;;;;;15.88;11.85;;;-0.20;99.90;;;;;;5145595;27;20062;-75
2022/11/20 01:08:41;;;;;;;23.65;12.45;;;-0.20;99.90;;;;;;5132750;27;20112;-74
2022/11/20 01:11:12;;;;;;;15.52;11.55;;;-0.10;99.90;;;;;;5148258;27;20039;-74
2022/11/20 01:13:38;;;;;;;17.50;11.95;;;-0.20;99.90;;;;;;5145020;27;20494;-74
2022/11/20 01:16:08;;;;;;;20.38;12.95;;;-0.10;99.90;;;;;;5148667;27;20049;-75
2022/11/20 01:18:35;;;;;;;20.27;12.98;;;0.00;99.90;;;;;;5123893;27;20494;-75
2022/11/20 01:21:03;;;;;;;18.25;12.07;;;-0.50;99.90;;;;;;5138036;27;20118;-73
2022/11/20 01:23:39;;;;;;;18.85;12.55;;;-0.10;99.90;;;;;;5149681;27;20042;-75
2022/11/20 01:26:08;;;;;;;15.55;12.05;;;-0.10;99.90;;;;;;5111433;27;20043;-75
2022/11/20 01:28:34;;;;;;;22.48;12.38;;;1.50;99.90;;;;;;5147864;27;20509;-74
2022/11/20 01:31:01;;;;;;;17.05;12.05;;;-0.10;99.90;;;;;;5112801;27;20075;-74
2022/11/20 01:33:27;;;;;;;17.55;11.23;;;-0.10;99.90;;;;;;5131537;27;20167;-75
2022/11/20 01:36:02;;;;;;;15.45;11.38;;;-0.10;99.90;;;;;;5149029;27;20502;-75
2022/11/20 01:38:28;;;;;;;17.58;12.25;;;-0.10;99.90;;;;;;5107847;27;20047;-75
2022/11/20 01:40:55;;;;;;;15.70;11.27;;;-0.10;99.90;;;;;;5144844;27;20164;-75
2022/11/20 01:43:21;;;;;;;16.58;11.73;;;-0.20;99.90;;;;;;5141883;27;20038;-74
2022/11/20 01:46:11;;;;;;;21.02;11.57;;;-0.10;99.90;;;;;;5126512;27;20035;-74
2022/11/20 01:49:26;;;;;;;15.35;10.77;;;-0.10;99.90;;;;;;5127471;27;20043;-75
2022/11/20 01:52:01;;;;;;;16.77;12.35;;;0.00;99.90;;;;;;5022733;28;20216;-75
2022/11/20 01:54:39;;;;;;;16.83;10.50;;;-0.10;99.90;;;;;;5124569;27;20051;-75
2022/11/20 01:57:07;;;;;;;15.50;10.52;;;1.50;99.90;;;;;;5145403;27;20065;-74
2022/11/20 01:59:34;;;;;;;13.93;10.60;;;0.00;99.90;;;;;;5143356;27;20043;-74
2022/11/20 02:01:59;;;;;;;18.17;11.60;;;0.00;99.90;;;;;;5131751;27;20047;-74
2022/11/20 02:04:25;;;;;;;14.50;11.10;;;0.00;99.90;;;;;;5128619;27;20457;-75
2022/11/20 02:07:00;;;;;;;20.00;11.40;;;0.00;99.90;;;;;;5125725;27;20540;-74
2022/11/20 02:09:26;;;;;;;;;;;0.00;99.90;;;;;;5130987;27;20038;-75
2022/11/20 02:11:52;;;;;;;16.38;11.07;;;0.00;99.90;;;;;;5108105;27;19975;-75
2022/11/20 02:14:19;;;;;;;16.42;11.70;;;0.60;99.90;;;;;;5142831;27;20042;-73
2022/11/20 02:16:46;;;;;;;18.63;11.35;;;0.00;99.90;;;;;;5111726;27;20039;-74
2022/11/20 02:19:30;;;;;;;21.75;11.25;;;0.00;99.90;;;;;;5143261;27;20035;-74
2022/11/20 02:22:10;;;;;;;14.25;10.73;;;0.00;99.90;;;;;;5124152;27;20043;-73
2022/11/20 02:24:35;;;;;;;18.95;11.38;;;0.00;99.90;;;;;;5142204;27;20031;-74
2022/11/20 02:27:19;;;;;;;18.30;11.27;;;0.00;99.90;;;;;;5109123;27;20442;-74
2022/11/20 02:29:52;;;;;;;16.20;11.95;;;1.10;99.90;;;;;;5126881;27;20047;-74
2022/11/20 02:32:27;;;;;;;16.75;11.80;;;0.10;99.90;;;;;;5128349;27;20043;-75
2022/11/20 02:34:53;;;;;;;;;;;0.10;99.90;;;;;;5129813;27;20070;-75
2022/11/20 02:37:20;;;;;;;19.42;11.98;;;1.30;99.90;;;;;;5148457;27;20416;-75
2022/11/20 02:39:47;;;;;;;15.77;11.75;;;0.00;99.90;;;;;;5147578;27;20626;-75
2022/11/20 02:42:13;;;;;;;19.55;12.52;;;0.10;99.90;;;;;;5149190;27;20045;-74
2022/11/20 02:44:39;;;;;;;18.92;11.93;;;0.40;99.90;;;;;;5127712;27;20039;-74
2022/11/20 02:47:04;;;;;;;14.60;11.65;;;0.10;99.90;;;;;;5144757;27;20047;-74
2022/11/20 02:49:30;;;;;;;15.20;11.48;;;0.00;99.90;;;;;;5112744;27;20045;-74
2022/11/20 02:51:56;;;;;;;16.95;11.85;;;0.00;99.90;;;;;;5127480;27;20507;-75
2022/11/20 02:54:22;;;;;;;18.00;12.52;;;-0.70;99.90;;;;;;5110552;27;20452;-74
2022/11/20 02:56:47;;;;;;;18.92;11.65;;;-0.10;99.90;;;;;;5125649;27;20039;-75
2022/11/20 02:59:13;;;;;;;20.48;12.23;;;0.00;99.90;;;;;;5150240;27;20042;-76
2022/11/20 03:01:38;;;;;;;18.92;11.82;;;-0.10;99.90;;;;;;5122809;27;20039;-76
2022/11/20 03:04:04;;;;;;;15.18;11.20;;;0.00;99.90;;;;;;5131076;27;20027;-76
2022/11/20 03:06:30;;;;;;;19.60;11.95;;;0.00;99.90;;;;;;5146005;27;20129;-76
2022/11/20 03:08:55;;;;;;;15.88;11.73;;;0.00;99.90;;;;;;5145659;27;20039;-76
2022/11/20 03:11:21;;;;;;;15.90;11.90;;;0.00;99.90;;;;;;5146747;27;20058;-75
2022/11/20 03:13:47;;;;;;;16.45;11.85;;;0.00;99.90;;;;;;5130928;27;20047;-75
2022/11/20 03:16:15;;;;;;;15.10;11.73;;;-0.40;99.90;;;;;;5126359;27;20076;-75
2022/11/20 03:18:41;;;;;;;14.23;10.77;;;0.00;99.90;;;;;;5122356;27;20487;-74
2022/11/20 03:21:09;;;;;;;16.38;10.95;;;1.30;99.90;;;;;;5147719;27;20083;-73
2022/11/20 03:23:35;;;;;;;19.30;10.45;;;-0.10;99.90;;;;;;5145514;27;20486;-72
2022/11/20 03:26:08;;;;;;;14.43;10.98;;;0.00;99.90;;;;;;5130155;27;20037;-74
2022/11/20 03:28:33;;;;;;;20.77;11.80;;;0.00;99.90;;;;;;5143170;27;20098;-75
2022/11/20 03:31:08;;;;;;;15.75;10.27;;;0.00;99.90;;;;;;5127230;27;20031;-75
2022/11/20 03:33:34;;;;;;;15.35;10.52;;;0.00;99.90;;;;;;5140726;27;20486;-75
2022/11/20 03:36:05;;;;;;;17.05;11.82;;;0.00;99.90;;;;;;5147952;27;20030;-75
2022/11/20 03:38:31;;;;;;;15.55;10.98;;;0.00;99.90;;;;;;5108101;28;20058;-74
2022/11/20 03:41:05;;;;;;;18.35;12.52;;;1.40;99.90;;;;;;5128291;27;20050;-75
2022/11/20 03:43:32;;;;;;;16.70;11.40;;;0.00;99.90;;;;;;5124899;27;20034;-76
2022/11/20 03:45:58;;;;;;;14.88;10.80;;;0.00;99.90;;;;;;5148495;27;20451;-73
2022/11/20 03:48:24;;;;;;;13.90;10.82;;;0.00;99.90;;;;;;5112857;27;20094;-74
2022/11/20 03:50:51;;;;;;;13.90;10.02;;;0.00;99.90;;;;;;5112083;27;20164;-74
2022/11/20 03:53:17;;;;;;;13.48;10.07;;;0.00;99.90;;;;;;5144259;27;20075;-73
2022/11/20 03:55:43;;;;;;;15.55;9.80;;;0.00;99.90;;;;;;5148926;27;20401;-70
2022/11/20 03:58:10;;;;;;;15.88;9.90;;;0.70;99.90;;;;;;5120299;27;20042;-73
2022/11/20 04:00:36;;;;;;;14.85;9.95;;;0.00;99.90;;;;;;5129791;27;20478;-73
2022/11/20 04:03:02;;;;;;;16.67;10.85;;;0.10;99.90;;;;;;5109878;27;20053;-73
2022/11/20 04:05:28;;;;;;;12.70;9.60;;;0.00;99.90;;;;;;5128361;27;20039;-74
2022/11/20 04:07:54;;;;;;;13.80;9.18;;;0.10;99.90;;;;;;5145409;27;20406;-73
2022/11/20 04:10:20;;;;;;;16.58;9.95;;;-1.60;99.90;;;;;;5128818;27;20042;-72
2022/11/20 04:12:45;;;;;;;15.43;10.60;;;0.10;99.90;;;;;;5125226;27;20063;-73
2022/11/20 04:15:11;;;;;;;11.50;8.88;;;1.40;99.90;;;;;;5149575;27;20944;-72
2022/11/20 04:17:37;;;;;;;12.55;9.48;;;0.60;99.90;;;;;;5114995;27;20041;-73
2022/11/20 04:20:03;;;;;;;11.85;9.55;;;0.10;99.90;;;;;;5125690;27;20044;-72
2022/11/20 04:22:28;;;;;;;10.50;8.45;;;0.10;99.90;;;;;;5147636;27;20039;-73
2022/11/20 04:24:54;;;;;;;12.60;9.00;;;0.10;99.90;;;;;;5108456;27;20042;-72
2022/11/20 04:27:20;;;;;;;12.73;8.98;;;0.10;99.90;;;;;;5131838;27;20053;-73
2022/11/20 04:29:46;;;;;;;11.35;8.85;;;0.10;99.90;;;;;;5144867;27;20110;-74
2022/11/20 04:32:11;;;;;;;11.70;8.45;;;0.10;99.90;;;;;;5131489;27;20047;-74
2022/11/20 04:34:37;;;;;;;11.90;8.60;;;0.10;99.90;;;;;;5149141;27;20134;-74
2022/11/20 04:37:02;;;;;;;15.85;9.10;;;0.10;99.90;;;;;;5148381;27;20047;-74
2022/11/20 04:39:28;;;;;;;12.75;8.48;;;0.10;99.90;;;;;;5115143;27;20038;-74
2022/11/20 04:42:28;;;;;;;11.23;8.40;;;0.10;99.90;;;;;;5133331;27;20607;-74
2022/11/20 04:44:39;;;;;;;13.52;9.20;;;0.10;99.90;;;;;;5136408;27;20047;-74
2022/11/20 04:47:05;;;;;;;12.93;9.27;;;0.20;99.90;;;;;;5132269;27;20052;-73
2022/11/20 04:49:31;;;;;;;11.63;9.15;;;1.50;99.90;;;;;;5132342;27;20821;-74
2022/11/20 04:51:57;;;;;;;11.50;8.88;;;0.30;99.90;;;;;;5113964;27;20039;-74
2022/11/20 04:54:23;;;;;;;13.10;8.50;;;0.30;99.90;;;;;;5150610;27;20100;-74
2022/11/20 04:56:50;;;;;;;11.40;8.65;;;1.80;99.90;;;;;;5126547;27;20077;-74
2022/11/20 04:59:15;;;;;;;12.43;7.90;;;0.30;99.90;;;;;;5151570;27;20045;-74
2022/11/20 05:01:41;;;;;;;9.88;7.63;;;0.30;99.90;;;;;;5143959;27;20491;-74
2022/11/20 05:04:07;;;;;;;10.52;8.57;;;0.30;99.90;;;;;;5141805;27;20702;-73
2022/11/20 05:06:33;;;;;;;12.05;8.88;;;0.30;99.90;;;;;;5148519;27;20038;-74
2022/11/20 05:08:59;;;;;;;10.30;7.60;;;1.80;99.90;;;;;;5142674;27;20034;-73
2022/11/20 05:11:24;;;;;;;12.13;9.05;;;0.30;99.90;;;;;;5150389;27;20045;-74
2022/11/20 05:13:51;;;;;;;12.45;8.82;;;1.30;99.90;;;;;;5145113;27;20046;-74
2022/11/20 05:16:19;;;;;;;10.65;8.05;;;1.50;99.90;;;;;;5148861;27;20420;-74
2022/11/20 05:18:45;;;;;;;9.98;7.22;;;0.30;99.90;;;;;;5145718;27;20042;-73
2022/11/20 05:21:12;;;;;;;9.82;7.90;;;1.10;99.90;;;;;;5145393;27;20042;-74
2022/11/20 05:23:38;;;;;;;13.57;8.68;;;1.70;99.90;;;;;;5106045;27;20057;-74
2022/11/20 05:26:12;;;;;;;12.27;8.60;;;-0.10;99.90;;;;;;5112016;27;20113;-74
2022/11/20 05:28:38;;;;;;;9.70;7.28;;;2.00;99.90;;;;;;5128299;27;20054;-74
2022/11/20 05:31:15;;;;;;;16.60;11.77;;;0.40;99.90;;;;;;5125373;27;20031;-74
2022/11/20 05:33:42;;;;;;;114.05;63.67;;;0.40;99.90;;;;;;5128270;27;20528;-74
2022/11/20 05:36:09;;;;;;;24.80;14.30;;;0.40;99.90;;;;;;5124411;27;20035;-73
2022/11/20 05:38:35;;;;;;;13.18;9.70;;;0.40;99.90;;;;;;5147698;27;20050;-74
2022/11/20 05:41:04;;;;;;;10.52;8.25;;;0.10;99.90;;;;;;5131807;27;20122;-74
2022/11/20 05:43:33;;;;;;;10.57;7.82;;;0.50;99.90;;;;;;5122147;27;20050;-72
2022/11/20 05:45:59;;;;;;;9.57;7.45;;;0.80;99.90;;;;;;5145340;27;20723;-74
2022/11/20 05:48:24;;;;;;;10.00;8.13;;;0.40;99.90;;;;;;5125918;27;20039;-73
2022/11/20 05:50:50;;;;;;;9.07;7.55;;;0.50;99.90;;;;;;5111150;27;20043;-73
2022/11/20 05:53:16;;;;;;;11.60;8.30;;;0.50;99.90;;;;;;5109154;27;20505;-73
2022/11/20 05:55:41;;;;;;;10.52;8.55;;;0.40;99.90;;;;;;5127760;27;20109;-72
2022/11/20 05:58:07;;;;;;;11.02;7.82;;;0.40;99.90;;;;;;5147954;27;20051;-72
2022/11/20 06:00:33;;;;;;;11.27;8.55;;;0.40;99.90;;;;;;5119526;27;20061;-73
2022/11/20 06:02:58;;;;;;;11.25;8.40;;;0.40;99.90;;;;;;5144944;27;20039;-72
2022/11/20 06:05:24;;;;;;;11.85;7.82;;;0.30;99.90;;;;;;5145514;27;20075;-73
2022/11/20 06:07:49;;;;;;;11.55;8.32;;;0.30;99.90;;;;;;5105495;27;20549;-72
2022/11/20 06:10:15;;;;;;;9.13;7.38;;;0.40;99.90;;;;;;5126636;27;20045;-74
2022/11/20 06:12:41;;;;;;;10.43;8.20;;;0.40;99.90;;;;;;5105415;27;20050;-74
2022/11/20 06:15:07;;;;;;;10.13;7.85;;;0.30;99.90;;;;;;5125984;27;20485;-73
2022/11/20 06:17:33;;;;;;;12.90;8.50;;;0.40;99.90;;;;;;5111320;27;20027;-74
2022/11/20 06:19:58;;;;;;;9.80;7.95;;;0.40;99.90;;;;;;5140234;27;20065;-73
2022/11/20 06:22:24;;;;;;;12.02;7.72;;;0.30;99.90;;;;;;5143584;27;20496;-73
2022/11/20 06:24:49;;;;;;;12.77;8.30;;;0.40;99.90;;;;;;5123621;27;20099;-74
2022/11/20 06:27:15;;;;;;;11.68;8.68;;;2.40;99.90;;;;;;5151492;27;20038;-73
2022/11/20 06:29:41;;;;;;;9.82;7.95;;;0.20;99.90;;;;;;5148331;27;20837;-74
2022/11/20 06:32:07;;;;;;;11.57;8.13;;;0.30;99.90;;;;;;5144704;27;20030;-73
2022/11/20 06:34:32;;;;;;;13.70;8.75;;;0.40;99.90;;;;;;5110782;27;20057;-73
2022/11/20 06:36:58;;;;;;;12.05;8.57;;;0.30;99.90;;;;;;5136936;27;20035;-73
2022/11/20 06:39:24;;;;;;;11.77;9.02;;;0.40;99.90;;;;;;5113251;27;20171;-73
2022/11/20 06:41:49;;;;;;;12.43;8.40;;;0.40;99.90;;;;;;5129097;27;20149;-74
2022/11/20 06:44:15;;;;;;;10.45;8.20;;;0.40;99.90;;;;;;5127376;27;20462;-73
2022/11/20 06:46:40;;;;;;;9.73;7.85;;;0.40;99.90;;;;;;5121418;27;20070;-74
2022/11/20 06:49:06;;;;;;;11.32;7.40;;;1.10;99.90;;;;;;5131135;27;20401;-74
2022/11/20 06:51:32;;;;;;;10.63;8.23;;;0.40;99.90;;;;;;5132027;27;20440;-75
2022/11/20 06:53:57;;;;;;;12.02;8.18;;;0.50;99.90;;;;;;5119552;27;20060;-74
2022/11/20 06:56:23;;;;;;;13.90;8.43;;;0.40;99.90;;;;;;5148388;27;20042;-74
2022/11/20 06:58:48;;;;;;;9.82;7.50;;;0.40;99.90;;;;;;5144798;27;20047;-75
2022/11/20 07:01:14;;;;;;;9.25;7.75;;;0.40;99.90;;;;;;5124544;27;20034;-73
2022/11/20 07:03:41;;;;;;;11.90;8.23;;;0.40;99.90;;;;;;5110434;27;20139;-75
2022/11/20 07:06:07;;;;;;;11.65;8.40;;;0.40;99.90;;;;;;5147920;27;20526;-75
2022/11/20 07:08:33;;;;;;;9.40;7.38;;;0.40;99.90;;;;;;5147057;27;20122;-74
2022/11/20 07:11:01;;;;;;;11.25;8.45;;;0.30;99.90;;;;;;5129134;27;20096;-74
2022/11/20 07:13:28;;;;;;;12.70;8.80;;;0.40;99.90;;;;;;5131031;27;20050;-74
2022/11/20 07:15:54;;;;;;;13.55;8.10;;;0.40;99.90;;;;;;5130017;27;20478;-73
2022/11/20 07:18:20;;;;;;;11.48;8.23;;;0.40;99.90;;;;;;5109879;27;20046;-74
2022/11/20 07:20:45;;;;;;;10.73;8.00;;;0.40;99.90;;;;;;5112201;27;20065;-74
2022/11/20 07:23:11;;;;;;;8.98;7.80;;;0.40;99.90;;;;;;5107538;27;20430;-74
2022/11/20 07:25:37;;;;;;;12.23;8.90;;;0.40;99.90;;;;;;5127827;27;20130;-72
2022/11/20 07:28:03;;;;;;;15.10;8.43;;;0.20;99.90;;;;;;5125528;27;20165;-74
2022/11/20 07:30:29;;;;;;;11.73;8.18;;;0.40;99.90;;;;;;5130868;27;20039;-73
2022/11/20 07:32:56;;;;;;;11.60;8.40;;;0.30;99.90;;;;;;5147686;27;20134;-73
2022/11/20 07:35:24;;;;;;;12.35;8.50;;;0.40;99.90;;;;;;5127700;27;20077;-74
2022/11/20 07:37:49;;;;;;;22.77;9.02;;;2.20;99.90;;;;;;5131273;27;20614;-75
2022/11/20 07:40:16;;;;;;;10.32;8.05;;;2.20;99.90;;;;;;5146224;27;20057;-73
2022/11/20 07:42:53;;;;;;;12.05;9.43;;;0.40;99.90;;;;;;5127399;27;20509;-73
2022/11/20 07:45:20;;;;;;;10.95;8.82;;;0.40;99.90;;;;;;5126211;27;20070;-73
2022/11/20 07:47:46;;;;;;;12.25;8.90;;;0.40;99.90;;;;;;5121280;27;20049;-73
2022/11/20 07:50:12;;;;;;;11.93;8.18;;;0.40;99.90;;;;;;5129703;27;20042;-74
2022/11/20 07:52:38;;;;;;;12.80;8.32;;;0.30;99.90;;;;;;5130888;27;20497;-72
2022/11/20 07:55:04;;;;;;;9.45;7.25;;;0.30;99.90;;;;;;5123932;27;20042;-72
2022/11/20 07:57:30;;;;;;;10.73;8.73;;;0.40;99.90;;;;;;5127993;27;20082;-75
2022/11/20 07:59:56;;;;;;;9.65;7.32;;;1.70;99.90;;;;;;5128338;27;20177;-73
2022/11/20 08:02:21;;;;;;;13.00;9.27;;;0.20;99.90;;;;;;5110871;27;20053;-73
2022/11/20 08:04:47;;;;;;;12.43;9.32;;;0.30;99.90;;;;;;5125799;27;20036;-72
2022/11/20 08:07:13;;;;;;;9.55;7.32;;;0.40;99.90;;;;;;5141349;27;20043;-73
2022/11/20 08:09:38;;;;;;;12.88;8.65;;;0.40;99.90;;;;;;5110451;27;20035;-73
2022/11/20 08:14:49;;;;;;;10.13;8.30;;;0.40;99.90;;;;;;5121937;27;20123;-73
2022/11/20 08:17:15;;;;;;;9.63;7.57;;;0.30;99.90;;;;;;5105062;27;20482;-73
2022/11/20 08:19:41;;;;;;;11.65;8.52;;;0.30;99.90;;;;;;5146282;27;20085;-73
2022/11/20 08:22:06;;;;;;;10.48;7.85;;;0.30;99.90;;;;;;5145224;27;20035;-73
2022/11/20 08:24:32;;;;;;;12.02;8.73;;;0.30;99.90;;;;;;5124471;27;20050;-75
2022/11/20 08:26:59;;;;;;;9.60;8.10;;;0.30;99.90;;;;;;5125793;27;20700;-73
2022/11/20 08:29:26;;;;;;;11.10;8.98;;;1.90;99.90;;;;;;5149457;27;20439;-74
2022/11/20 08:31:51;;;;;;;12.85;9.18;;;0.40;99.90;;;;;;5104268;27;20047;-74
2022/11/20 08:34:17;;;;;;;11.93;8.15;;;0.30;99.90;;;;;;5112490;27;20038;-74
2022/11/20 08:36:42;;;;;;;9.23;7.85;;;0.40;99.90;;;;;;5141062;27;20039;-73
2022/11/20 08:39:11;;;;;;;11.05;8.50;;;0.40;99.90;;;;;;5148111;27;20126;-74
2022/11/20 08:41:36;;;;;;;10.98;7.80;;;0.30;99.90;;;;;;5125947;27;20171;-75
2022/11/20 08:44:04;;;;;;;10.77;7.90;;;0.40;99.90;;;;;;5145775;27;20113;-74
2022/11/20 08:46:39;;;;;;;11.23;8.82;;;0.50;99.90;;;;;;5127115;27;20072;-74
2022/11/20 08:49:05;;;;;;;10.75;8.25;;;0.10;99.90;;;;;;5126582;27;20046;-75
2022/11/20 08:51:31;;;;;;;12.18;8.45;;;1.90;99.90;;;;;;5146891;27;20403;-74
2022/11/20 08:53:57;;;;;;;11.80;8.18;;;0.40;99.90;;;;;;5145772;27;20068;-75
2022/11/20 08:56:23;;;;;;;10.63;8.93;;;0.50;99.90;;;;;;5128855;27;20035;-74
2022/11/20 08:58:51;;;;;;;22.05;13.30;;;0.50;99.90;;;;;;5113488;27;20043;-74
2022/11/20 09:01:17;;;;;;;10.40;8.52;;;0.50;99.90;;;;;;5112706;27;20050;-75
2022/11/20 09:03:43;;;;;;;12.23;7.95;;;0.40;99.90;;;;;;5111852;27;20043;-76
2022/11/20 09:06:09;;;;;;;10.55;8.00;;;0.50;99.90;;;;;;5130043;27;20037;-74
2022/11/20 09:08:35;;;;;;;10.93;7.90;;;0.50;99.90;;;;;;5148034;27;20129;-75
2022/11/20 09:11:02;;;;;;;11.50;7.68;;;0.50;99.90;;;;;;5142934;27;20042;-73
2022/11/20 09:13:28;;;;;;;12.52;8.57;;;0.60;99.90;;;;;;5146367;27;20047;-74
2022/11/20 09:16:04;;;;;;;9.52;7.68;;;0.60;99.90;;;;;;5147054;27;20031;-75
2022/11/20 09:18:31;;;;;;;11.32;8.25;;;0.40;99.90;;;;;;5146620;27;20045;-74
2022/11/20 09:21:02;;;;;;;10.88;8.00;;;0.60;99.90;;;;;;5127405;27;20046;-74
2022/11/20 09:23:33;;;;;;;10.52;7.72;;;0.50;99.90;;;;;;5147509;27;20050;-74
2022/11/20 09:26:11;;;;;;;10.75;8.23;;;0.60;99.90;;;;;;5126000;27;20549;-75
2022/11/20 09:28:37;;;;;;;11.30;7.75;;;0.60;99.90;;;;;;5123957;27;20039;-75
2022/11/20 09:31:14;;;;;;;11.32;8.32;;;0.90;99.90;;;;;;5126998;27;20397;-75
2022/11/20 09:33:40;;;;;;;12.80;8.77;;;0.60;99.90;;;;;;5125779;27;20043;-75
2022/11/20 09:36:06;;;;;;;12.45;8.38;;;0.60;99.90;;;;;;5129931;27;20092;-75
2022/11/20 09:38:31;;;;;;;9.02;7.55;;;0.50;99.90;;;;;;5111229;27;20490;-74
2022/11/20 09:41:02;;;;;;;11.82;7.65;;;0.60;99.90;;;;;;5144739;27;20042;-73
2022/11/20 09:44:02;;;;;;;11.45;7.43;;;2.00;99.90;;;;;;5127036;27;20055;-74
2022/11/20 09:47:08;;;;;;;10.05;7.28;;;0.60;99.90;;;;;;5120713;27;20066;-74
2022/11/20 09:50:06;;;;;;;10.13;7.20;;;0.60;99.90;;;;;;5123597;27;20414;-74
2022/11/20 09:53:00;;;;;;;11.52;8.20;;;0.60;99.90;;;;;;5124724;27;20038;-74
2022/11/20 09:55:27;;;;;;;10.73;8.48;;;0.60;99.90;;;;;;5129225;27;20107;-74
2022/11/20 09:57:53;;;;;;;10.15;7.93;;;0.60;99.90;;;;;;5148785;27;20042;-74
2022/11/20 10:00:21;;;;;;;12.43;8.48;;;0.60;99.90;;;;;;5148688;27;20692;-74
2022/11/20 10:03:00;;;;;;;10.40;8.05;;;0.70;99.90;;;;;;5123612;27;20390;-73
2022/11/20 10:05:31;;;;;;;11.15;7.70;;;0.70;99.90;;;;;;5142342;27;20096;-75
2022/11/20 10:08:02;;;;;;;10.80;8.23;;;2.40;99.90;;;;;;5112500;27;20046;-74
2022/11/20 10:10:38;;;;;;;13.73;8.32;;;0.80;99.90;;;;;;5119520;27;20038;-73
2022/11/20 10:13:23;;;;;;;12.05;8.40;;;0.80;99.90;;;;;;5128917;27;20043;-74
2022/11/20 10:16:07;;;;;;;;;;;0.90;99.90;;;;;;5124232;27;20165;-73
2022/11/20 10:18:55;;;;;;;11.02;8.00;;;0.90;99.90;;;;;;5110585;27;19941;-73
2022/11/20 10:21:59;;;;;;;14.10;9.05;;;0.90;99.90;;;;;;5127463;27;20078;-73
2022/11/20 10:25:01;;;;;;;10.68;7.90;;;0.90;99.90;;;;;;5145921;27;20107;-73
2022/11/20 10:28:01;;;;;;;11.77;8.68;;;1.00;99.90;;;;;;5129363;27;20511;-73
2022/11/20 10:30:31;;;;;;;9.63;7.75;;;1.00;99.90;;;;;;5132365;27;20039;-73
2022/11/20 10:33:14;;;;;;;15.32;9.00;;;1.00;99.90;;;;;;5132196;27;20435;-73
2022/11/20 10:35:49;;;;;;;13.27;7.78;;;1.00;99.90;;;;;;5130889;27;20042;-74
2022/11/20 10:38:32;;;;;;;10.50;7.80;;;1.00;99.90;;;;;;5126308;27;20047;-73
2022/11/20 10:43:50;;;;;;;11.35;8.75;;;2.40;99.90;;;;;;5130102;27;20058;-73
2022/11/20 10:46:22;;;;;;;11.32;8.10;;;1.10;99.90;;;;;;5147566;27;20034;-73
2022/11/20 10:48:48;;;;;;;10.32;7.68;;;1.10;99.90;;;;;;5145516;27;20095;-73
2022/11/20 10:51:19;;;;;;;10.48;7.20;;;2.70;99.90;;;;;;4418335;27;10000737;-73
2022/11/20 10:54:17;;;;;;;10.20;7.82;;;1.10;99.90;;;;;;5125154;27;20047;-73
2022/11/20 10:56:56;;;;;;;10.10;7.65;;;1.10;99.90;;;;;;5123372;27;20078;-73
2022/11/20 10:59:59;;;;;;;9.48;6.90;;;1.10;99.90;;;;;;5106117;27;20050;-72
2022/11/20 11:02:41;;;;;;;8.18;6.47;;;1.10;99.90;;;;;;5105517;27;20034;-74
2022/11/20 11:05:39;;;;;;;9.10;7.43;;;1.20;99.90;;;;;;5141768;27;20034;-74
2022/11/20 11:08:13;;;;;;;12.95;7.22;;;1.10;99.90;;;;;;5076776;27;20051;-73
2022/11/20 11:10:41;;;;;;;;;;;1.20;99.90;;;;;;5107535;27;20506;-73
2022/11/20 11:13:18;;;;;;;9.95;7.18;;;1.20;99.90;;;;;;5116715;27;19926;-74
2022/11/20 11:15:44;;;;;;;46.53;9.63;;;1.90;99.90;;;;;;5110361;27;20042;-75
2022/11/20 11:18:11;;;;;;;18.08;6.72;;;1.30;99.90;;;;;;5126556;27;20382;-73
2022/11/20 11:20:37;;;;;;;12.80;6.72;;;1.30;99.90;;;;;;5128801;27;20486;-74
2022/11/20 11:23:04;;;;;;;12.93;7.03;;;1.50;99.90;;;;;;5123401;27;20050;-74
2022/11/20 11:25:35;;;;;;;9.45;7.15;;;1.60;99.90;;;;;;5103841;27;20845;-73
2022/11/20 11:28:05;;;;;;;9.68;6.88;;;1.50;99.90;;;;;;5129674;27;20054;-73
2022/11/20 11:30:42;;;;;;;8.02;6.88;;;1.60;99.90;;;;;;5112130;27;20039;-74
2022/11/20 11:33:35;;;;;;;10.30;7.10;;;1.60;99.90;;;;;;5109866;27;20482;-73
2022/11/20 11:36:17;;;;;;;30.00;13.57;;;1.60;99.90;;;;;;5128970;27;20038;-74
2022/11/20 11:38:44;;;;;;;18.20;10.90;;;1.60;99.90;;;;;;5141853;27;20047;-72
2022/11/20 11:41:17;;;;;;;11.25;6.85;;;1.70;99.90;;;;;;5141565;27;20502;-73
2022/11/20 11:46:49;;;;;;;7.20;5.68;;;1.70;99.90;;;;;;4769009;27;9999885;-72
2022/11/20 11:49:18;;;;;;;8.02;6.20;;;1.80;99.90;;;;;;5141308;27;20060;-75
2022/11/20 11:52:20;;;;;;;6.07;5.47;;;1.80;99.90;;;;;;5109916;27;20038;-77
2022/11/20 11:55:04;;;;;;;9.63;4.80;;;1.80;99.90;;;;;;5115164;27;20493;-76
2022/11/20 11:57:45;;;;;;;6.57;5.45;;;1.80;99.90;;;;;;5124892;27;20477;-77
2022/11/20 12:00:19;;;;;;;16.25;10.57;;;1.90;99.90;;;;;;5126200;27;20257;-77
2022/11/20 12:02:45;;;;;;;8.27;5.35;;;2.00;99.90;;;;;;5123175;27;20126;-74
2022/11/20 12:05:28;;;;;;;5.60;5.00;;;2.00;99.90;;;;;;5138875;27;20126;-74
2022/11/20 12:08:00;;;;;;;5.63;4.60;;;2.10;99.90;;;;;;5142103;27;20060;-73
2022/11/20 12:11:08;;;;;;;7.22;4.75;;;2.20;99.90;;;;;;5122769;28;20454;-74
2022/11/20 12:13:34;;;;;;;5.53;4.45;;;2.20;99.90;;;;;;5106084;27;20051;-74
2022/11/20 12:16:01;;;;;;;5.85;4.93;;;2.20;99.90;;;;;;5136890;27;20087;-73
2022/11/20 12:18:28;;;;;;;6.40;4.63;;;2.30;99.90;;;;;;5118176;27;20058;-74
2022/11/20 12:21:15;;;;;;;6.03;4.18;;;4.00;99.90;;;;;;5120555;27;20042;-74
2022/11/20 12:24:03;;;;;;;7.95;4.50;;;2.40;99.90;;;;;;5142030;27;20047;-74
2022/11/20 12:26:58;;;;;;;6.78;4.90;;;2.50;99.90;;;;;;5102300;27;20490;-74
2022/11/20 12:29:51;;;;;;;6.18;3.90;;;2.50;99.90;;;;;;5124618;27;20765;-74
2022/11/20 12:32:22;;;;;;;4.65;4.00;;;2.60;99.90;;;;;;5145367;27;20067;-73
2022/11/20 12:35:02;;;;;;;5.30;3.85;;;2.60;99.90;;;;;;5147240;27;20749;-74
2022/11/20 12:37:43;;;;;;;4.35;3.67;;;2.60;99.90;;;;;;5127373;27;20047;-74
2022/11/20 12:40:27;;;;;;;4.07;3.55;;;2.60;99.90;;;;;;5123994;27;20051;-74
2022/11/20 12:46:18;;;;;;;4.35;3.92;;;3.30;99.90;;;;;;5126753;27;20061;-74
2022/11/20 12:48:50;;;;;;;9.05;6.22;;;2.70;99.90;;;;;;5110540;27;20051;-73
2022/11/20 12:52:00;;;;;;;6.68;4.75;;;2.70;99.90;;;;;;5106341;27;20039;-74
2022/11/20 12:54:26;;;;;;;6.65;5.95;;;2.70;99.90;;;;;;5120236;27;20050;-74
2022/11/20 12:57:34;;;;;;;9.02;6.68;;;2.70;99.90;;;;;;5126495;27;20042;-75
2022/11/20 13:00:04;;;;;;;7.32;5.25;;;2.80;99.90;;;;;;5128557;27;20054;-77
2022/11/20 13:02:35;;;;;;;6.03;4.60;;;2.80;99.90;;;;;;5114767;27;20103;-73
2022/11/20 13:05:32;;;;;;;5.22;4.53;;;2.80;99.90;;;;;;5119931;27;20062;-74
2022/11/20 13:08:00;;;;;;;5.53;4.35;;;2.80;99.90;;;;;;5125885;27;20043;-73
2022/11/20 13:10:46;;;;;;;5.38;4.72;;;2.80;99.90;;;;;;5107778;27;20071;-74
2022/11/20 13:13:29;;;;;;;5.30;4.47;;;3.20;99.90;;;;;;5131018;27;20121;-75